createdAt,value
2017-11-10T00:00:05.853Z,35.3
2017-11-10T00:02:05.752Z,35.2
2017-11-10T00:04:05.645Z,35.2
2017-11-10T00:06:05.464Z,35.3
2017-11-10T00:08:05.412Z,35.3
2017-11-10T00:10:05.929Z,35.2
2017-11-10T00:12:10.500Z,35.2
2017-11-10T00:14:05.303Z,35.2
2017-11-10T00:16:05.064Z,35.2
2017-11-10T00:18:10.231Z,35.2
2017-11-10T00:20:10.264Z,35.2
2017-11-10T00:22:05.219Z,35.3
2017-11-10T00:24:05.542Z,35.2
2017-11-10T00:26:05.367Z,35.2
2017-11-10T00:28:05.288Z,35.2
2017-11-10T00:30:07.636Z,35.1
2017-11-10T00:32:06.437Z,35.1
2017-11-10T00:34:10.613Z,35.2
2017-11-10T00:36:05.580Z,35.2
2017-11-10T00:38:10.873Z,35.2
2017-11-10T00:40:08.358Z,35.2
2017-11-10T00:42:05.109Z,35.2
2017-11-10T00:44:05.831Z,35.3
2017-11-10T00:46:10.651Z,35.1
2017-11-10T00:48:07.899Z,35.1
2017-11-10T00:50:05.684Z,35.1
2017-11-10T00:52:05.589Z,35.1
2017-11-10T00:54:05.455Z,35.2
2017-11-10T00:56:07.724Z,35.1
2017-11-10T00:58:05.492Z,35.1
2017-11-10T01:00:07.772Z,35.1
2017-11-10T01:02:05.569Z,35.1
2017-11-10T01:04:05.327Z,35.2
2017-11-10T01:06:05.198Z,35.1
2017-11-10T01:08:05.980Z,35.1
2017-11-10T01:10:05.238Z,35.1
2017-11-10T01:12:05.981Z,35.1
2017-11-10T01:14:15.813Z,35.1
2017-11-10T01:16:05.560Z,35.1
2017-11-10T01:18:05.483Z,35.1
2017-11-10T01:20:05.780Z,35.2
2017-11-10T01:22:05.507Z,35.2
2017-11-10T01:24:05.331Z,35.1
2017-11-10T01:26:05.053Z,35.2
2017-11-10T01:28:08.323Z,35.2
2017-11-10T01:30:05.048Z,35.1
2017-11-10T01:32:08.308Z,35
2017-11-10T01:34:05.044Z,35.1
2017-11-10T01:36:05.902Z,35
2017-11-10T01:38:10.676Z,35.1
2017-11-10T01:40:05.909Z,35
2017-11-10T01:42:05.668Z,35.2
2017-11-10T01:44:05.415Z,35
2017-11-10T01:46:05.142Z,35.1
2017-11-10T01:48:05.988Z,35.2
2017-11-10T01:50:05.844Z,35
2017-11-10T01:52:08.133Z,35
2017-11-10T01:54:05.892Z,35
2017-11-10T01:56:05.176Z,35
2017-11-10T01:58:05.900Z,35.2
2017-11-10T02:00:08.212Z,35.1
2017-11-10T02:02:06.013Z,35.1
2017-11-10T02:04:05.716Z,35.1
2017-11-10T02:06:05.429Z,35.1
2017-11-10T02:08:05.391Z,35.2
2017-11-10T02:10:05.230Z,35.1
2017-11-10T02:12:06.010Z,35.1
2017-11-10T02:14:05.737Z,35.2
2017-11-10T02:16:13.636Z,35.1
2017-11-10T02:18:05.113Z,35.1
2017-11-10T02:20:08.332Z,34.9
2017-11-10T02:22:05.079Z,34.9
2017-11-10T02:24:10.940Z,35
2017-11-10T02:26:05.672Z,35
2017-11-10T02:28:05.413Z,35.1
2017-11-10T02:30:05.244Z,35
2017-11-10T02:32:05.584Z,35
2017-11-10T02:34:05.382Z,35
2017-11-10T02:36:05.652Z,35.1
2017-11-10T02:38:05.441Z,35.1
2017-11-10T02:40:12.745Z,35.1
2017-11-10T02:42:08.114Z,35
2017-11-10T02:44:05.874Z,35
2017-11-10T02:46:07.759Z,35
2017-11-10T02:48:05.119Z,35
2017-11-10T02:50:05.923Z,34.9
2017-11-10T02:52:05.629Z,35
2017-11-10T02:54:07.900Z,35
2017-11-10T02:56:05.602Z,35
2017-11-10T02:58:05.330Z,35
2017-11-10T03:00:10.263Z,34.8
2017-11-10T03:02:06.015Z,34.8
2017-11-10T03:04:05.777Z,35
2017-11-10T03:06:05.539Z,34.9
2017-11-10T03:08:05.262Z,34.9
2017-11-10T03:10:05.112Z,35
2017-11-10T03:12:05.974Z,34.8
2017-11-10T03:14:05.772Z,35.1
2017-11-10T03:16:05.496Z,34.9
2017-11-10T03:18:08.116Z,34.9
2017-11-10T03:20:05.893Z,35
2017-11-10T03:22:05.671Z,35
2017-11-10T03:24:05.517Z,34.8
2017-11-10T03:26:05.252Z,34.8
2017-11-10T03:28:08.545Z,34.9
2017-11-10T03:30:05.828Z,34.9
2017-11-10T03:32:05.636Z,34.8
2017-11-10T03:34:05.377Z,34.9
2017-11-10T03:36:08.359Z,34.9
2017-11-10T03:38:05.064Z,35
2017-11-10T03:40:10.373Z,34.9
2017-11-10T03:42:05.165Z,35
2017-11-10T03:44:08.419Z,35
2017-11-10T03:46:07.698Z,35
2017-11-10T03:48:13.106Z,34.9
2017-11-10T03:50:10.890Z,34.9
2017-11-10T03:52:05.710Z,34.9
2017-11-10T03:54:06.048Z,34.9
2017-11-10T03:56:05.813Z,34.8
2017-11-10T03:58:05.601Z,35
2017-11-10T04:00:07.843Z,35
2017-11-10T04:02:05.613Z,35
2017-11-10T04:04:05.398Z,35.1
2017-11-10T04:06:05.291Z,34.9
2017-11-10T04:08:06.053Z,34.9
2017-11-10T04:10:05.827Z,35.1
2017-11-10T04:12:05.648Z,34.8
2017-11-10T04:14:05.986Z,34.9
2017-11-10T04:16:05.192Z,35
2017-11-10T04:18:05.157Z,35
2017-11-10T04:20:05.442Z,34.9
2017-11-10T04:22:05.170Z,34.9
2017-11-10T04:24:05.933Z,34.9
2017-11-10T04:26:05.658Z,35
2017-11-10T04:28:05.389Z,34.9
2017-11-10T04:30:05.109Z,35
2017-11-10T04:32:05.848Z,34.8
2017-11-10T04:34:08.121Z,34.7
2017-11-10T04:36:05.405Z,34.7
2017-11-10T04:38:05.110Z,34.7
2017-11-10T04:40:05.871Z,34.8
2017-11-10T04:42:05.649Z,34.8
2017-11-10T04:44:06.063Z,34.8
2017-11-10T04:46:05.841Z,34.8
2017-11-10T04:48:05.710Z,35
2017-11-10T04:50:05.082Z,34.8
2017-11-10T04:52:08.352Z,34.8
2017-11-10T04:54:05.165Z,34.7
2017-11-10T04:56:05.921Z,34.8
2017-11-10T04:58:08.246Z,34.9
2017-11-10T05:00:06.204Z,34.9
2017-11-10T05:02:08.512Z,34.8
2017-11-10T05:04:05.266Z,34.8
2017-11-10T05:06:08.520Z,35
2017-11-10T05:08:05.200Z,35
2017-11-10T05:10:05.906Z,34.8
2017-11-10T05:12:05.681Z,34.7
2017-11-10T05:14:05.461Z,34.7
2017-11-10T05:16:05.725Z,34.9
2017-11-10T05:18:05.394Z,34.9
2017-11-10T05:20:05.139Z,34.9
2017-11-10T05:22:05.885Z,34.8
2017-11-10T05:24:05.642Z,34.7
2017-11-10T05:26:07.903Z,34.8
2017-11-10T05:28:08.155Z,34.8
2017-11-10T05:30:05.978Z,34.8
2017-11-10T05:32:05.761Z,34.9
2017-11-10T05:34:07.974Z,34.9
2017-11-10T05:36:05.225Z,34.9
2017-11-10T05:38:05.927Z,34.8
2017-11-10T05:40:12.725Z,34.9
2017-11-10T05:42:05.473Z,34.9
2017-11-10T05:44:05.753Z,34.9
2017-11-10T05:46:07.997Z,35
2017-11-10T05:48:08.412Z,34.6
2017-11-10T05:50:05.142Z,34.7
2017-11-10T05:52:05.923Z,34.7
2017-11-10T05:54:05.691Z,34.8
2017-11-10T05:56:05.399Z,34.8
2017-11-10T05:58:05.133Z,34.9
2017-11-10T06:00:05.952Z,34.7
2017-11-10T06:02:05.228Z,34.8
2017-11-10T06:04:05.966Z,34.9
2017-11-10T06:06:10.804Z,34.8
2017-11-10T06:08:12.705Z,34.7
2017-11-10T06:10:08.117Z,34.8
2017-11-10T06:12:05.918Z,34.9
2017-11-10T06:14:05.739Z,34.8
2017-11-10T06:16:05.516Z,34.8
2017-11-10T06:18:05.553Z,34.7
2017-11-10T06:20:05.286Z,34.7
2017-11-10T06:22:08.525Z,34.7
2017-11-10T06:24:05.260Z,34.7
2017-11-10T06:26:06.041Z,34.6
2017-11-10T06:28:05.791Z,34.8
2017-11-10T06:30:08.133Z,34.8
2017-11-10T06:32:05.918Z,34.8
2017-11-10T06:34:05.663Z,34.7
2017-11-10T06:36:06.028Z,34.8
2017-11-10T06:38:05.785Z,34.8
2017-11-10T06:40:05.060Z,34.9
2017-11-10T06:42:05.947Z,34.8
2017-11-10T06:44:05.671Z,34.7
2017-11-10T06:46:05.430Z,34.7
2017-11-10T06:48:05.233Z,34.8
2017-11-10T06:50:05.495Z,35.1
2017-11-10T06:52:05.253Z,35
2017-11-10T06:54:05.995Z,35.1
2017-11-10T06:56:05.872Z,35.6
2017-11-10T06:58:05.669Z,35.4
2017-11-10T07:00:05.451Z,35.5
2017-11-10T07:02:05.220Z,35.8
2017-11-10T07:04:06.166Z,35.6
2017-11-10T07:06:05.978Z,35.8
2017-11-10T07:08:05.688Z,36.1
2017-11-10T07:10:05.488Z,36
2017-11-10T07:12:05.759Z,36
2017-11-10T07:14:05.576Z,35.9
2017-11-10T07:16:07.348Z,35.8
2017-11-10T07:18:05.842Z,35.9
2017-11-10T07:20:08.098Z,35.9
2017-11-10T07:22:09.121Z,36
2017-11-10T07:24:07.950Z,35.9
2017-11-10T07:26:05.735Z,35.9
2017-11-10T07:28:05.522Z,36.2
2017-11-10T07:30:10.689Z,36.1
2017-11-10T07:32:05.385Z,36.1
2017-11-10T07:34:05.147Z,36.2
2017-11-10T07:36:05.880Z,36.2
2017-11-10T07:38:05.581Z,36.2
2017-11-10T07:40:05.445Z,36.4
2017-11-10T07:42:05.151Z,36.6
2017-11-10T07:44:05.836Z,36.4
2017-11-10T07:46:05.865Z,36.3
2017-11-10T07:48:05.926Z,36.1
2017-11-10T07:50:05.757Z,36.3
2017-11-10T07:52:08.028Z,36.4
2017-11-10T07:54:05.821Z,36.3
2017-11-10T07:56:08.142Z,36.4
2017-11-10T07:58:05.852Z,36.4
2017-11-10T08:00:05.699Z,36.7
2017-11-10T08:02:05.461Z,36.6
2017-11-10T08:04:05.265Z,36.4
2017-11-10T08:06:08.568Z,36.6
2017-11-10T08:08:05.406Z,36.6
2017-11-10T08:10:05.160Z,36.6
2017-11-10T08:12:05.911Z,36.3
2017-11-10T08:14:05.765Z,36.5
2017-11-10T08:16:10.547Z,36.5
2017-11-10T08:18:05.585Z,36.5
2017-11-10T08:20:05.361Z,36.6
2017-11-10T08:22:05.637Z,36.6
2017-11-10T08:24:05.501Z,36.7
2017-11-10T08:26:05.327Z,36.6
2017-11-10T08:28:05.543Z,36.5
2017-11-10T08:30:06.907Z,36.7
2017-11-10T08:32:07.724Z,36.6
2017-11-10T08:34:08.006Z,36.7
2017-11-10T08:36:05.789Z,36.7
2017-11-10T08:38:05.537Z,36.7
2017-11-10T08:40:05.330Z,36.6
2017-11-10T08:42:07.636Z,36.6
2017-11-10T08:44:05.448Z,36.6
2017-11-10T08:46:05.231Z,36.6
2017-11-10T08:48:06.095Z,36.7
2017-11-10T08:50:05.867Z,36.7
2017-11-10T08:52:08.139Z,36.8
2017-11-10T08:54:05.976Z,36.5
2017-11-10T08:56:08.389Z,36.9
2017-11-10T08:58:05.637Z,36.6
2017-11-10T09:00:05.955Z,36.9
2017-11-10T09:02:05.683Z,36.6
2017-11-10T09:04:05.470Z,36.8
2017-11-10T09:06:05.224Z,36.8
2017-11-10T09:08:05.947Z,36.8
2017-11-10T09:10:05.687Z,37.1
2017-11-10T09:12:05.580Z,37.4
2017-11-10T09:14:05.332Z,37.3
2017-11-10T09:16:07.556Z,36.9
2017-11-10T09:18:05.612Z,36.9
2017-11-10T09:20:05.307Z,37
2017-11-10T09:22:05.995Z,37.1
2017-11-10T09:24:05.856Z,37
2017-11-10T09:26:05.658Z,37.5
2017-11-10T09:28:10.465Z,37.7
2017-11-10T09:30:05.372Z,37.7
2017-11-10T09:32:05.105Z,37.9
2017-11-10T09:34:05.995Z,37.9
2017-11-10T09:36:05.822Z,37.9
2017-11-10T09:38:05.566Z,37.9
2017-11-10T09:40:05.321Z,37.9
2017-11-10T09:42:05.104Z,37.9
2017-11-10T09:44:05.926Z,37.9
2017-11-10T09:46:05.190Z,37.8
2017-11-10T09:48:12.682Z,37.8
2017-11-10T09:50:05.389Z,37.8
2017-11-10T09:52:05.167Z,37.8
2017-11-10T09:54:05.897Z,37.8
2017-11-10T09:56:08.175Z,37.8
2017-11-10T09:58:05.905Z,37.8
2017-11-10T10:00:05.161Z,37.7
2017-11-10T10:02:05.848Z,37.7
2017-11-10T10:04:05.571Z,37.7
2017-11-10T10:06:07.853Z,37.6
2017-11-10T10:08:05.132Z,37.6
2017-11-10T10:10:05.418Z,37.6
2017-11-10T10:12:05.136Z,37.5
2017-11-10T10:14:05.921Z,37.5
2017-11-10T10:16:05.709Z,37.5
2017-11-10T10:18:05.732Z,37.3
2017-11-10T10:20:06.000Z,37.5
2017-11-10T10:22:05.749Z,37.2
2017-11-10T10:24:05.590Z,37.3
2017-11-10T10:26:05.303Z,37.5
2017-11-10T10:28:05.623Z,37.2
2017-11-10T10:30:08.509Z,37.2
2017-11-10T10:32:05.247Z,37.2
2017-11-10T10:34:06.351Z,37.1
2017-11-10T10:36:07.640Z,37.1
2017-11-10T10:38:05.336Z,37.1
2017-11-10T10:40:05.297Z,37.1
2017-11-10T10:42:06.051Z,37
2017-11-10T10:44:05.783Z,37
2017-11-10T10:46:05.528Z,37
2017-11-10T10:48:07.822Z,37
2017-11-10T10:50:05.097Z,37
2017-11-10T10:52:05.399Z,37
2017-11-10T10:54:05.217Z,37
2017-11-10T10:56:05.994Z,37
2017-11-10T10:58:05.808Z,37
2017-11-10T11:00:05.167Z,37
2017-11-10T11:02:05.982Z,37
2017-11-10T11:04:08.338Z,37
2017-11-10T11:06:12.649Z,37
2017-11-10T11:08:05.341Z,37
2017-11-10T11:10:05.079Z,37
2017-11-10T11:12:05.822Z,37
2017-11-10T11:14:05.559Z,37
2017-11-10T11:16:07.848Z,37
2017-11-10T11:18:05.955Z,37
2017-11-10T11:20:05.922Z,36.8
2017-11-10T11:22:05.651Z,37
2017-11-10T11:24:05.447Z,37
2017-11-10T11:26:07.753Z,37
2017-11-10T11:28:05.449Z,37
2017-11-10T11:30:05.309Z,37
2017-11-10T11:32:05.647Z,37
2017-11-10T11:34:05.413Z,37
2017-11-10T11:36:05.208Z,37
2017-11-10T11:38:05.891Z,36.7
2017-11-10T11:40:05.668Z,37
2017-11-10T11:42:05.407Z,37
2017-11-10T11:44:06.126Z,37
2017-11-10T11:46:05.354Z,36.8
2017-11-10T11:48:05.105Z,36.8
2017-11-10T11:50:08.386Z,36.8
2017-11-10T11:52:05.782Z,37
2017-11-10T11:54:05.736Z,36.7
2017-11-10T11:56:05.013Z,36.8
2017-11-10T11:58:05.363Z,36.8
2017-11-10T12:00:05.602Z,36.8
2017-11-10T12:02:05.414Z,36.8
2017-11-10T12:04:05.419Z,36.8
2017-11-10T12:06:05.719Z,36.7
2017-11-10T12:08:05.429Z,36.7
2017-11-10T12:10:05.668Z,36.6
2017-11-10T12:12:05.450Z,36.8
2017-11-10T12:14:05.190Z,36.7
2017-11-10T12:16:05.950Z,36.8
2017-11-10T12:18:05.505Z,36.8
2017-11-10T12:20:07.967Z,36.8
2017-11-10T12:22:05.881Z,36.8
2017-11-10T12:24:08.257Z,36.8
2017-11-10T12:26:05.533Z,36.8
2017-11-10T12:28:15.537Z,36.8
2017-11-10T12:30:05.402Z,36.8
2017-11-10T12:32:05.659Z,36.8
2017-11-10T12:34:05.417Z,36.8
2017-11-10T12:36:05.162Z,36.7
2017-11-10T12:38:08.422Z,36.7
2017-11-10T12:40:07.689Z,36.8
2017-11-10T12:42:06.114Z,36.8
2017-11-10T12:44:05.865Z,36.8
2017-11-10T12:46:05.588Z,36.8
2017-11-10T12:48:05.407Z,36.7
2017-11-10T12:50:05.164Z,36.8
2017-11-10T12:52:08.547Z,36.8
2017-11-10T12:54:05.328Z,36.8
2017-11-10T12:56:08.127Z,36.8
2017-11-10T12:58:08.363Z,36.6
2017-11-10T13:00:05.173Z,36.5
2017-11-10T13:02:05.933Z,36.8
2017-11-10T13:04:05.681Z,36.8
2017-11-10T13:06:05.986Z,36.8
2017-11-10T13:08:05.729Z,36.8
2017-11-10T13:10:05.476Z,36.8
2017-11-10T13:12:05.226Z,36.8
2017-11-10T13:14:05.933Z,36.8
2017-11-10T13:16:05.687Z,36.8
2017-11-10T13:18:12.763Z,36.8
2017-11-10T13:20:05.451Z,36.8
2017-11-10T13:22:05.265Z,36.7
2017-11-10T13:24:13.253Z,36.9
2017-11-10T13:26:05.989Z,37
2017-11-10T13:28:10.890Z,36.6
2017-11-10T13:30:05.854Z,36.8
2017-11-10T13:32:05.559Z,36.6
2017-11-10T13:34:08.172Z,36.5
2017-11-10T13:36:05.891Z,36.8
2017-11-10T13:38:08.089Z,36.8
2017-11-10T13:40:05.811Z,36.8
2017-11-10T13:42:05.100Z,36.8
2017-11-10T13:44:08.357Z,36.8
2017-11-10T13:46:05.123Z,36.8
2017-11-10T13:48:05.954Z,37.2
2017-11-10T13:50:05.557Z,37.1
2017-11-10T13:52:08.407Z,36.9
2017-11-10T13:54:05.779Z,36.9
2017-11-10T13:56:05.075Z,36.9
2017-11-10T13:58:05.801Z,36.9
2017-11-10T14:00:05.086Z,36.9
2017-11-10T14:02:05.839Z,36.7
2017-11-10T14:04:05.154Z,36.7
2017-11-10T14:06:05.897Z,36.7
2017-11-10T14:08:05.407Z,37
2017-11-10T14:10:05.703Z,36.9
2017-11-10T14:12:08.056Z,37.1
2017-11-10T14:14:08.363Z,37.2
2017-11-10T14:16:08.603Z,37.2
2017-11-10T14:18:05.619Z,37
2017-11-10T14:20:07.850Z,37.3
2017-11-10T14:22:05.579Z,37.3
2017-11-10T14:24:05.371Z,37.2
2017-11-10T14:26:05.066Z,37.3
2017-11-10T14:28:05.818Z,37.4
2017-11-10T14:30:05.209Z,37.4
2017-11-10T14:32:08.464Z,37.5
2017-11-10T14:34:05.201Z,37.5
2017-11-10T14:36:05.926Z,37.3
2017-11-10T14:38:05.178Z,37.4
2017-11-10T14:40:05.481Z,37.6
2017-11-10T14:42:05.219Z,37.6
2017-11-10T14:44:07.787Z,37.7
2017-11-10T14:46:05.501Z,37.4
2017-11-10T14:48:05.208Z,37.3
2017-11-10T14:50:11.026Z,37.3
2017-11-10T14:52:05.764Z,37.3
2017-11-10T14:54:08.211Z,37.9
2017-11-10T14:56:08.465Z,37.7
2017-11-10T14:58:07.690Z,37.5
2017-11-10T15:00:05.537Z,37.5
2017-11-10T15:02:05.341Z,37.2
2017-11-10T15:04:05.051Z,37.8
2017-11-10T15:06:05.877Z,37.7
2017-11-10T15:08:05.643Z,37.8
2017-11-10T15:10:05.355Z,37.7
2017-11-10T15:12:05.061Z,37.5
2017-11-10T15:14:05.847Z,37.5
2017-11-10T15:16:05.621Z,37.5
2017-11-10T15:18:05.077Z,37.5
2017-11-10T15:20:05.820Z,37.7
2017-11-10T15:22:08.114Z,37.4
2017-11-10T15:24:05.495Z,37.4
2017-11-10T15:26:05.200Z,37.4
2017-11-10T15:28:08.480Z,37.4
2017-11-10T15:30:05.366Z,37.4
2017-11-10T15:32:07.664Z,37.4
2017-11-10T15:34:05.590Z,37.4
2017-11-10T15:36:05.328Z,37.4
2017-11-10T15:38:05.055Z,37.2
2017-11-10T15:40:05.913Z,37.2
2017-11-10T15:42:12.783Z,37.2
2017-11-10T15:44:10.093Z,37.2
2017-11-10T15:46:05.932Z,37.2
2017-11-10T15:48:10.896Z,37.2
2017-11-10T15:50:05.096Z,37.2
2017-11-10T15:52:05.968Z,37.3
2017-11-10T15:54:13.316Z,37.2
2017-11-10T15:56:04.994Z,37.1
2017-11-10T15:58:05.246Z,37.2
2017-11-10T16:00:08.575Z,37.2
2017-11-10T16:02:05.330Z,37
2017-11-10T16:04:05.063Z,37.2
2017-11-10T16:06:05.350Z,37.2
2017-11-10T16:08:05.121Z,37.2
2017-11-10T16:10:06.022Z,37.2
2017-11-10T16:12:05.740Z,37.2
2017-11-10T16:14:05.612Z,37.2
2017-11-10T16:16:05.386Z,37.2
2017-11-10T16:18:07.892Z,37.1
2017-11-10T16:20:05.680Z,37.1
2017-11-10T16:22:13.089Z,36.9
2017-11-10T16:24:05.822Z,36.9
2017-11-10T16:26:05.557Z,37.1
2017-11-10T16:28:05.309Z,37
2017-11-10T16:30:05.207Z,37.2
2017-11-10T16:32:05.944Z,37.1
2017-11-10T16:34:05.676Z,37.1
2017-11-10T16:36:06.151Z,37.1
2017-11-10T16:38:10.918Z,37.1
2017-11-10T16:40:05.651Z,37.1
2017-11-10T16:42:05.501Z,37.1
2017-11-10T16:44:07.789Z,36.9
2017-11-10T16:46:05.507Z,36.8
2017-11-10T16:48:05.391Z,36.9
2017-11-10T16:50:07.713Z,37.2
2017-11-10T16:52:05.410Z,37
2017-11-10T16:54:05.187Z,37.1
2017-11-10T16:56:06.050Z,37.1
2017-11-10T16:58:05.831Z,37.1
2017-11-10T17:00:08.130Z,37.1
2017-11-10T17:02:08.369Z,37.1
2017-11-10T17:04:05.071Z,37.1
2017-11-10T17:06:05.851Z,37.1
2017-11-10T17:08:05.597Z,37.3
2017-11-10T17:10:05.304Z,37.2
2017-11-10T17:12:05.194Z,37.2
2017-11-10T17:14:05.972Z,37.4
2017-11-10T17:16:05.207Z,37.4
2017-11-10T17:18:05.146Z,37.4
2017-11-10T17:20:05.892Z,37.4
2017-11-10T17:22:05.825Z,37.3
2017-11-10T17:24:05.600Z,37.5
2017-11-10T17:26:05.916Z,37.3
2017-11-10T17:28:07.726Z,37.5
2017-11-10T17:30:05.656Z,37.5
2017-11-10T17:32:05.432Z,37.4
2017-11-10T17:34:05.179Z,37.5
2017-11-10T17:36:06.033Z,37.4
2017-11-10T17:38:06.440Z,37.4
2017-11-10T17:40:07.800Z,37.4
2017-11-10T17:42:06.135Z,37.4
2017-11-10T17:44:05.557Z,37.4
2017-11-10T17:46:05.653Z,37.5
2017-11-10T17:48:08.437Z,37.4
2017-11-10T17:50:05.212Z,37.4
2017-11-10T17:52:05.494Z,37.4
2017-11-10T17:54:10.470Z,37.3
2017-11-10T17:56:05.432Z,37.3
2017-11-10T17:58:05.804Z,37.3
2017-11-10T18:00:05.543Z,37.4
2017-11-10T18:02:05.374Z,37.3
2017-11-10T18:04:05.163Z,37.3
2017-11-10T18:06:05.598Z,37.3
2017-11-10T18:08:13.114Z,37.3
2017-11-10T18:10:05.962Z,37.3
2017-11-10T18:12:05.936Z,37.3
2017-11-10T18:14:05.217Z,37.3
2017-11-10T18:16:06.096Z,37.3
2017-11-10T18:18:06.208Z,37.2
2017-11-10T18:20:05.944Z,37.2
2017-11-10T18:22:08.204Z,37.2
2017-11-10T18:24:06.137Z,37.2
2017-11-10T18:26:08.508Z,37.2
2017-11-10T18:28:05.827Z,37.2
2017-11-10T18:30:05.552Z,37.2
2017-11-10T18:32:05.314Z,37.2
2017-11-10T18:34:05.129Z,37.2
2017-11-10T18:36:08.542Z,37.2
2017-11-10T18:38:07.812Z,37.5
2017-11-10T18:40:05.540Z,37.5
2017-11-10T18:42:05.431Z,37.5
2017-11-10T18:44:05.173Z,37.5
2017-11-10T18:46:05.940Z,37.5
2017-11-10T18:48:05.745Z,37.5
2017-11-10T18:50:05.614Z,37.5
2017-11-10T18:52:05.955Z,37.5
2017-11-10T18:54:05.952Z,37.5
2017-11-10T18:56:05.706Z,37.5
2017-11-10T18:58:05.456Z,37.5
2017-11-10T19:00:05.796Z,37.6
2017-11-10T19:02:05.062Z,37.6
2017-11-10T19:04:08.390Z,37.6
2017-11-10T19:06:05.175Z,37.6
2017-11-10T19:08:05.889Z,37.6
2017-11-10T19:10:05.568Z,37.7
2017-11-10T19:12:07.896Z,37.6
2017-11-10T19:14:05.627Z,37.6
2017-11-10T19:16:05.977Z,37.6
2017-11-10T19:18:05.575Z,37.7
2017-11-10T19:20:07.975Z,37.6
2017-11-10T19:22:05.244Z,37.6
2017-11-10T19:24:05.990Z,37.6
2017-11-10T19:26:05.737Z,37.6
2017-11-10T19:28:05.504Z,37.7
2017-11-10T19:30:05.804Z,37.6
2017-11-10T19:32:06.819Z,37.8
2017-11-10T19:34:06.229Z,37.8
2017-11-10T19:36:05.367Z,37.6
2017-11-10T19:38:05.163Z,37.6
2017-11-10T19:40:08.445Z,37.6
2017-11-10T19:42:05.178Z,37.6
2017-11-10T19:44:06.308Z,37.8
2017-11-10T19:46:05.034Z,37.6
2017-11-10T19:48:05.984Z,37.6
2017-11-10T19:50:06.770Z,37.6
2017-11-10T19:52:05.786Z,37.6
2017-11-10T19:54:06.081Z,37.6
2017-11-10T19:56:05.799Z,37.6
2017-11-10T19:58:05.625Z,37.8
2017-11-10T20:00:05.417Z,37.5
2017-11-10T20:02:05.961Z,37.7
2017-11-10T20:04:09.212Z,37.7
2017-11-10T20:06:05.917Z,37.7
2017-11-10T20:08:08.449Z,37.5
2017-11-10T20:10:05.241Z,37.5
2017-11-10T20:12:11.088Z,37.7
2017-11-10T20:14:05.613Z,37.7
2017-11-10T20:16:05.292Z,37.7
2017-11-10T20:18:05.853Z,37.7
2017-11-10T20:20:05.613Z,37.6
2017-11-10T20:22:05.392Z,37.7
2017-11-10T20:24:05.182Z,37.9
2017-11-10T20:26:05.884Z,37.9
2017-11-10T20:28:05.570Z,37.9
2017-11-10T20:30:05.319Z,37.6
2017-11-10T20:32:07.627Z,37.6
2017-11-10T20:34:05.099Z,37.6
2017-11-10T20:36:05.885Z,37.6
2017-11-10T20:38:05.803Z,37.6
2017-11-10T20:40:06.104Z,37.6
2017-11-10T20:42:07.950Z,37.6
2017-11-10T20:44:05.250Z,37.6
2017-11-10T20:46:08.486Z,37.6
2017-11-10T20:48:05.467Z,37.6
2017-11-10T20:50:05.356Z,37.6
2017-11-10T20:52:05.341Z,37.6
2017-11-10T20:54:05.391Z,37.6
2017-11-10T20:56:05.301Z,37.4
2017-11-10T20:58:06.203Z,37.6
2017-11-10T21:00:05.953Z,37.6
2017-11-10T21:02:08.208Z,37.6
2017-11-10T21:04:05.966Z,37.4
2017-11-10T21:06:05.816Z,37.3
2017-11-10T21:08:08.076Z,37.4
2017-11-10T21:10:05.895Z,37.4
2017-11-10T21:12:07.694Z,37.4
2017-11-10T21:14:05.443Z,37.4
2017-11-10T21:16:05.207Z,37.4
2017-11-10T21:18:07.702Z,37.3
2017-11-10T21:20:05.459Z,37.3
2017-11-10T21:22:07.882Z,37.3
2017-11-10T21:24:05.220Z,37.3
2017-11-10T21:26:07.050Z,37.4
2017-11-10T21:28:08.326Z,37.3
2017-11-10T21:30:07.643Z,37.4
2017-11-10T21:32:10.457Z,37.4
2017-11-10T21:34:05.234Z,37.4
2017-11-10T21:36:06.101Z,37.3
2017-11-10T21:38:05.433Z,37.3
2017-11-10T21:40:05.152Z,37.4
2017-11-10T21:42:06.065Z,37.4
2017-11-10T21:44:08.399Z,37.4
2017-11-10T21:46:05.322Z,37.3
2017-11-10T21:48:05.089Z,37.3
2017-11-10T21:50:05.869Z,37.3
2017-11-10T21:52:05.596Z,37.3
2017-11-10T21:54:05.300Z,37.2
2017-11-10T21:56:06.003Z,37.3
2017-11-10T21:58:08.253Z,37.3
2017-11-10T22:00:05.983Z,37.3
2017-11-10T22:02:05.926Z,37.3
2017-11-10T22:04:08.219Z,37.2
2017-11-10T22:06:11.162Z,37.3
2017-11-10T22:08:05.916Z,37
2017-11-10T22:10:07.754Z,37.3
2017-11-10T22:12:08.006Z,37.2
2017-11-10T22:14:05.703Z,37.3
2017-11-10T22:16:08.595Z,37.1
2017-11-10T22:18:05.073Z,37.1
2017-11-10T22:20:05.795Z,37.1
2017-11-10T22:22:08.074Z,37.1
2017-11-10T22:24:05.814Z,37.1
2017-11-10T22:26:05.564Z,37.2
2017-11-10T22:28:05.287Z,37.1
2017-11-10T22:30:11.205Z,37.1
2017-11-10T22:32:06.028Z,37.1
2017-11-10T22:34:08.389Z,37.1
2017-11-10T22:36:05.070Z,37.1
2017-11-10T22:38:06.006Z,37.1
2017-11-10T22:40:05.713Z,37.1
2017-11-10T22:42:05.563Z,37.1
2017-11-10T22:44:10.341Z,37.1
2017-11-10T22:46:05.116Z,37.1
2017-11-10T22:48:05.922Z,37.1
2017-11-10T22:50:05.156Z,37.2
2017-11-10T22:52:05.937Z,37.1
2017-11-10T22:54:05.686Z,37.3
2017-11-10T22:56:07.931Z,37.3
2017-11-10T22:58:05.786Z,37
2017-11-10T23:00:05.714Z,37.3
2017-11-10T23:02:05.467Z,37.3
2017-11-10T23:04:07.734Z,37.3
2017-11-10T23:06:06.102Z,37.1
2017-11-10T23:08:05.786Z,37.1
2017-11-10T23:10:05.042Z,37.3
2017-11-10T23:12:05.757Z,37.2
2017-11-10T23:14:10.535Z,37.3
2017-11-10T23:16:05.864Z,37.3
2017-11-10T23:18:05.828Z,37.3
2017-11-10T23:20:07.678Z,37.3
2017-11-10T23:22:08.030Z,37.3
2017-11-10T23:24:05.941Z,37.3
2017-11-10T23:26:05.267Z,37.3
2017-11-10T23:28:05.028Z,37.2
2017-11-10T23:30:05.800Z,37.5
2017-11-10T23:32:05.613Z,37.2
2017-11-10T23:34:05.376Z,37.5
2017-11-10T23:36:05.137Z,37.5
2017-11-10T23:38:05.838Z,37.2
2017-11-10T23:40:07.618Z,37.4
2017-11-10T23:42:05.941Z,37.4
2017-11-10T23:44:08.298Z,37.5
2017-11-10T23:46:11.075Z,37.5
2017-11-10T23:48:05.845Z,37.5
2017-11-10T23:50:05.615Z,37.4
2017-11-10T23:52:05.339Z,37.5
2017-11-10T23:54:07.631Z,37.4
2017-11-10T23:56:05.474Z,37.4
2017-11-10T23:58:05.233Z,37.4
